Time,TemperatureF,DewpointF,PressureIn,WindDirection,WindDirectionDegrees,WindSpeedMPH,WindSpeedGustMPH,Humidity,HourlyPrecipIn,Conditions,Clouds,dailyrainin,SoftwareType,DateUTC
2013-04-05 00:02:00,41.0,23.0,-100.00,SSE,165,3.0,4.0,48,0.00,,,-99.99,,2013-04-05 06:02:00,
2013-04-05 00:12:00,40.0,23.0,-100.00,SSE,155,6.0,9.0,49,0.00,,,-99.99,,2013-04-05 06:12:00,
2013-04-05 00:22:00,40.0,23.0,-100.00,SSE,155,6.0,9.0,49,0.00,,,-99.99,,2013-04-05 06:22:00,
2013-04-05 00:32:00,38.0,23.0,-100.00,SSE,160,4.0,6.0,54,0.00,,,-99.99,,2013-04-05 06:32:00,
2013-04-05 00:42:00,37.0,23.0,-100.00,South,170,2.0,7.0,56,0.00,,,-99.99,,2013-04-05 06:42:00,
2013-04-05 00:52:00,38.0,24.0,-100.00,South,175,4.0,11.0,56,0.00,,,-99.99,,2013-04-05 06:52:00,
2013-04-05 01:02:00,38.0,24.0,-100.00,SSE,155,7.0,11.0,57,0.00,,,-99.99,,2013-04-05 07:02:00,
2013-04-05 01:12:00,38.0,24.0,-100.00,SE,145,5.0,11.0,57,0.00,,,-99.99,,2013-04-05 07:12:00,
2013-04-05 01:22:00,37.0,24.0,-100.00,SE,130,7.0,10.0,57,0.00,,,-99.99,,2013-04-05 07:22:00,
2013-04-05 01:32:00,38.0,24.0,-100.00,SSE,155,4.0,7.0,57,0.00,,,-99.99,,2013-04-05 07:32:00,
2013-04-05 01:42:00,37.0,24.0,-100.00,SSE,160,3.0,6.0,58,0.00,,,-99.99,,2013-04-05 07:42:00,
2013-04-05 01:52:00,37.0,24.0,-100.00,SSE,155,6.0,7.0,59,0.00,,,-99.99,,2013-04-05 07:52:00,
2013-04-05 02:02:00,37.0,24.0,-100.00,SSE,155,6.0,7.0,59,0.00,,,-99.99,,2013-04-05 08:02:00,
2013-04-05 02:12:00,36.0,24.0,-100.00,SSE,155,6.0,9.0,60,0.00,,,-99.99,,2013-04-05 08:12:00,
2013-04-05 02:22:00,36.0,24.0,-100.00,ENE,75,3.0,7.0,61,0.00,,,-99.99,,2013-04-05 08:22:00,
2013-04-05 02:32:00,36.0,24.0,-100.00,East,90,1.0,7.0,61,0.00,,,-99.99,,2013-04-05 08:32:00,
2013-04-05 02:43:00,36.0,24.0,-100.00,SE,140,5.0,6.0,61,0.00,,,-99.99,,2013-04-05 08:43:00,
2013-04-05 02:52:00,37.0,25.0,-100.00,SSE,150,7.0,9.0,61,0.00,,,-99.99,,2013-04-05 08:52:00,
2013-04-05 03:02:00,37.0,25.0,-100.00,SE,145,2.0,7.0,60,0.00,,,-99.99,,2013-04-05 09:02:00,
2013-04-05 03:12:00,37.0,25.0,-100.00,SE,140,2.0,5.0,60,0.00,,,-99.99,,2013-04-05 09:12:00,
2013-04-05 03:22:00,36.0,24.0,-100.00,SSE,160,3.0,8.0,61,0.00,,,-99.99,,2013-04-05 09:22:00,
2013-04-05 03:33:00,35.0,24.0,-100.00,SSE,155,7.0,8.0,62,0.00,,,-99.99,,2013-04-05 09:33:00,
2013-04-05 03:42:00,36.0,24.0,-100.00,South,170,4.0,9.0,63,0.00,,,-99.99,,2013-04-05 09:42:00,
2013-04-05 03:52:00,36.0,25.0,-100.00,SE,130,3.0,6.0,63,0.00,,,-99.99,,2013-04-05 09:52:00,
2013-04-05 04:03:00,36.0,25.0,-100.00,ENE,60,3.0,6.0,63,0.00,,,-99.99,,2013-04-05 10:03:00,
2013-04-05 04:13:00,35.0,24.0,-100.00,SSE,155,3.0,7.0,62,0.00,,,-99.99,,2013-04-05 10:13:00,
2013-04-05 04:23:00,34.0,23.0,-100.00,SSE,160,4.0,9.0,64,0.00,,,-99.99,,2013-04-05 10:23:00,
2013-04-05 04:32:00,35.0,24.0,-100.00,SSE,155,4.0,7.0,65,0.00,,,-99.99,,2013-04-05 10:32:00,
2013-04-05 04:42:00,35.0,24.0,-100.00,NE,40,2.0,9.0,65,0.00,,,-99.99,,2013-04-05 10:42:00,
2013-04-05 04:52:00,35.0,25.0,-100.00,SSE,155,4.0,7.0,65,0.00,,,-99.99,,2013-04-05 10:52:00,
2013-04-05 05:02:00,35.0,24.0,-100.00,SSE,155,2.0,8.0,65,0.00,,,-99.99,,2013-04-05 11:02:00,
2013-04-05 05:12:00,35.0,25.0,-100.00,SE,135,4.0,9.0,65,0.00,,,-99.99,,2013-04-05 11:12:00,
2013-04-05 05:22:00,35.0,24.0,-100.00,SE,135,5.0,7.0,65,0.00,,,-99.99,,2013-04-05 11:22:00,
2013-04-05 05:33:00,36.0,25.0,-100.00,SE,130,4.0,9.0,65,0.00,,,-99.99,,2013-04-05 11:33:00,
2013-04-05 05:42:00,35.0,24.0,-100.00,SSE,150,4.0,7.0,65,0.00,,,-99.99,,2013-04-05 11:42:00,
2013-04-05 05:52:00,35.0,24.0,-100.00,SE,145,6.0,9.0,65,0.00,,,-99.99,,2013-04-05 11:52:00,
2013-04-05 06:02:00,35.0,24.0,-100.00,SSE,150,6.0,9.0,65,0.00,,,-99.99,,2013-04-05 12:02:00,
2013-04-05 06:12:00,34.0,24.0,-100.00,South,170,5.0,9.0,65,0.00,,,-99.99,,2013-04-05 12:12:00,
2013-04-05 06:22:00,34.0,24.0,-100.00,SSE,165,2.0,9.0,66,0.00,,,-99.99,,2013-04-05 12:22:00,
2013-04-05 06:32:00,32.0,23.0,-100.00,SSE,150,6.0,9.0,68,0.00,,,-99.99,,2013-04-05 12:32:00,
2013-04-05 06:42:00,33.0,24.0,-100.00,SSE,155,4.0,10.0,68,0.00,,,-99.99,,2013-04-05 12:42:00,
2013-04-05 06:52:00,32.0,24.0,-100.00,SSE,160,7.0,12.0,70,0.00,,,-99.99,,2013-04-05 12:52:00,
2013-04-05 07:02:00,33.0,24.0,-100.00,SSE,150,7.0,10.0,70,0.00,,,-99.99,,2013-04-05 13:02:00,
2013-04-05 07:12:00,34.0,25.0,-100.00,SE,140,4.0,11.0,70,0.00,,,-99.99,,2013-04-05 13:12:00,
2013-04-05 07:22:00,34.0,25.0,-100.00,SE,135,4.0,7.0,69,0.00,,,-99.99,,2013-04-05 13:22:00,
2013-04-05 07:32:00,35.0,26.0,-100.00,SSE,155,4.0,9.0,68,0.00,,,-99.99,,2013-04-05 13:32:00,
2013-04-05 07:42:00,35.0,26.0,-100.00,SE,140,4.0,8.0,67,0.00,,,-99.99,,2013-04-05 13:42:00,
2013-04-05 07:52:00,36.0,26.0,-100.00,East,100,2.0,6.0,67,0.00,,,-99.99,,2013-04-05 13:52:00,
2013-04-05 08:03:00,36.0,26.0,-100.00,SSE,155,4.0,7.0,66,0.00,,,-99.99,,2013-04-05 14:03:00,
2013-04-05 08:12:00,36.0,26.0,-100.00,SSE,155,4.0,7.0,66,0.00,,,-99.99,,2013-04-05 14:12:00,
2013-04-05 08:22:00,38.0,26.0,-100.00,East,80,2.0,6.0,61,0.00,,,-99.99,,2013-04-05 14:22:00,
2013-04-05 08:36:00,40.0,27.0,-100.00,SE,145,4.0,7.0,59,0.00,,,-99.99,,2013-04-05 14:36:00,
2013-04-05 08:43:00,41.0,28.0,-100.00,SSE,155,7.0,10.0,58,0.00,,,-99.99,,2013-04-05 14:43:00,
2013-04-05 08:54:00,44.0,28.0,-100.00,SSE,165,4.0,7.0,53,0.00,,,-99.99,,2013-04-05 14:54:00,
2013-04-05 09:02:00,46.0,28.0,-100.00,South,180,4.0,6.0,49,0.00,,,-99.99,,2013-04-05 15:02:00,
2013-04-05 09:12:00,46.0,26.0,-100.00,South,180,5.0,9.0,45,0.00,,,-99.99,,2013-04-05 15:12:00,
2013-04-05 09:23:00,47.0,26.0,-100.00,SSE,165,2.0,6.0,43,0.00,,,-99.99,,2013-04-05 15:23:00,
2013-04-05 09:33:00,48.0,26.0,-100.00,East,95,0.0,4.0,41,0.00,,,-99.99,,2013-04-05 15:33:00,
2013-04-05 09:43:00,49.0,26.0,-100.00,SSE,160,2.0,5.0,41,0.00,,,-99.99,,2013-04-05 15:43:00,
2013-04-05 09:53:00,51.0,27.0,-100.00,WNW,300,1.0,2.0,38,0.00,,,-99.99,,2013-04-05 15:53:00,
2013-04-05 10:02:00,51.0,26.0,-100.00,NNE,25,1.0,4.0,37,0.00,,,-99.99,,2013-04-05 16:02:00,
2013-04-05 10:13:00,53.0,27.0,-100.00,NW,310,4.0,6.0,36,0.00,,,-99.99,,2013-04-05 16:13:00,
2013-04-05 10:23:00,54.0,26.0,-100.00,WNW,290,6.0,15.0,33,0.00,,,-99.99,,2013-04-05 16:23:00,
2013-04-05 10:33:00,55.0,26.0,-100.00,WNW,285,9.0,11.0,32,0.00,,,-99.99,,2013-04-05 16:33:00,
2013-04-05 10:42:00,57.0,26.0,-100.00,WNW,285,6.0,14.0,30,0.00,,,-99.99,,2013-04-05 16:42:00,
2013-04-05 10:52:00,59.0,26.0,-100.00,WNW,295,9.0,14.0,27,0.00,,,-99.99,,2013-04-05 16:52:00,
2013-04-05 11:03:00,60.0,25.0,-100.00,SSW,210,6.0,15.0,25,0.00,,,-99.99,,2013-04-05 17:03:00,
2013-04-05 11:13:00,61.0,24.0,-100.00,South,180,5.0,10.0,23,0.00,,,-99.99,,2013-04-05 17:13:00,
2013-04-05 11:23:00,61.0,23.0,-100.00,WNW,285,12.0,22.0,23,0.00,,,-99.99,,2013-04-05 17:23:00,
2013-04-05 11:32:00,59.0,22.0,-100.00,WNW,295,12.0,18.0,23,0.00,,,-99.99,,2013-04-05 17:32:00,
2013-04-05 11:45:00,59.0,21.0,-100.00,WSW,250,5.0,13.0,22,0.00,,,-99.99,,2013-04-05 17:45:00,
2013-04-05 11:52:00,60.0,21.0,-100.00,West,280,9.0,14.0,22,0.00,,,-99.99,,2013-04-05 17:52:00,
2013-04-05 12:02:00,59.0,21.0,-100.00,WNW,295,7.0,14.0,22,0.00,,,-99.99,,2013-04-05 18:02:00,
2013-04-05 12:12:00,59.0,21.0,-100.00,West,280,7.0,16.0,22,0.00,,,-99.99,,2013-04-05 18:12:00,
2013-04-05 12:22:00,59.0,20.0,-100.00,SW,235,6.0,12.0,22,0.00,,,-99.99,,2013-04-05 18:22:00,
2013-04-05 12:33:00,58.0,20.0,-100.00,WNW,285,6.0,16.0,22,0.00,,,-99.99,,2013-04-05 18:33:00,
2013-04-05 12:42:00,58.0,20.0,-100.00,NW,315,3.0,15.0,22,0.00,,,-99.99,,2013-04-05 18:42:00,
2013-04-05 12:52:00,58.0,20.0,-100.00,WNW,295,6.0,12.0,22,0.00,,,-99.99,,2013-04-05 18:52:00,
2013-04-05 13:02:00,58.0,20.0,-100.00,SW,235,4.0,13.0,22,0.00,,,-99.99,,2013-04-05 19:02:00,
2013-04-05 13:13:00,58.0,20.0,-100.00,NW,325,4.0,16.0,23,0.00,,,-99.99,,2013-04-05 19:13:00,
2013-04-05 13:22:00,58.0,21.0,-100.00,North,355,4.0,14.0,23,0.00,,,-99.99,,2013-04-05 19:22:00,
2013-04-05 13:33:00,58.0,20.0,-100.00,West,270,8.0,15.0,23,0.00,,,-99.99,,2013-04-05 19:33:00,
2013-04-05 13:42:00,58.0,21.0,-100.00,SE,145,4.0,14.0,23,0.00,,,-99.99,,2013-04-05 19:42:00,
2013-04-05 13:52:00,58.0,21.0,-100.00,NW,305,7.0,16.0,23,0.00,,,-99.99,,2013-04-05 19:52:00,
2013-04-05 14:02:00,58.0,21.0,-100.00,WSW,255,5.0,8.0,23,0.00,,,-99.99,,2013-04-05 20:02:00,
2013-04-05 14:11:00,58.0,21.0,-100.00,SW,225,3.0,11.0,23,0.00,,,-99.99,,2013-04-05 20:11:00,
2013-04-05 14:22:00,58.0,21.0,-100.00,WSW,255,3.0,12.0,23,0.00,,,-99.99,,2013-04-05 20:22:00,
2013-04-05 14:32:00,58.0,21.0,-100.00,SSW,210,3.0,12.0,23,0.00,,,-99.99,,2013-04-05 20:32:00,
2013-04-05 14:42:00,58.0,22.0,-100.00,SE,135,8.0,20.0,23,0.00,,,-99.99,,2013-04-05 20:42:00,
2013-04-05 14:52:00,59.0,22.0,-100.00,WSW,240,7.0,22.0,23,0.00,,,-99.99,,2013-04-05 20:52:00,
2013-04-05 15:02:00,59.0,22.0,-100.00,East,100,6.0,16.0,23,0.00,,,-99.99,,2013-04-05 21:02:00,
2013-04-05 15:12:00,59.0,22.0,-100.00,South,185,2.0,19.0,23,0.00,,,-99.99,,2013-04-05 21:12:00,
2013-04-05 15:23:00,60.0,23.0,-100.00,SSW,200,3.0,17.0,23,0.00,,,-99.99,,2013-04-05 21:23:00,
2013-04-05 15:33:00,60.0,23.0,-100.00,West,270,7.0,21.0,23,0.00,,,-99.99,,2013-04-05 21:33:00,
2013-04-05 15:43:00,60.0,23.0,-100.00,North,0,7.0,17.0,24,0.00,,,-99.99,,2013-04-05 21:43:00,
2013-04-05 15:53:00,60.0,23.0,-100.00,North,0,7.0,17.0,24,0.00,,,-99.99,,2013-04-05 21:53:00,
2013-04-05 16:03:00,61.0,25.0,-100.00,SSE,160,7.0,17.0,25,0.00,,,-99.99,,2013-04-05 22:03:00,
2013-04-05 16:13:00,62.0,26.0,-100.00,East,95,4.0,17.0,24,0.00,,,-99.99,,2013-04-05 22:13:00,
2013-04-05 16:23:00,63.0,26.0,-100.00,SSE,150,11.0,18.0,23,0.00,,,-99.99,,2013-04-05 22:23:00,
2013-04-05 16:33:00,62.0,24.0,-100.00,SE,140,9.0,18.0,23,0.00,,,-99.99,,2013-04-05 22:33:00,
2013-04-05 16:43:00,61.0,24.0,-100.00,SSE,165,6.0,21.0,24,0.00,,,-99.99,,2013-04-05 22:43:00,
2013-04-05 16:52:00,59.0,24.0,-100.00,East,90,5.0,15.0,25,0.00,,,-99.99,,2013-04-05 22:52:00,
2013-04-05 17:02:00,58.0,24.0,-100.00,SSW,210,4.0,14.0,26,0.00,,,-99.99,,2013-04-05 23:02:00,
2013-04-05 17:12:00,57.0,24.0,-100.00,SSW,210,3.0,25.0,27,0.00,,,-99.99,,2013-04-05 23:12:00,
2013-04-05 17:22:00,56.0,24.0,-100.00,SSE,150,5.0,14.0,28,0.00,,,-99.99,,2013-04-05 23:22:00,
2013-04-05 17:32:00,56.0,25.0,-100.00,South,175,4.0,14.0,29,0.00,,,-99.99,,2013-04-05 23:32:00,
2013-04-05 17:42:00,56.0,25.0,-100.00,WSW,240,6.0,15.0,29,0.00,,,-99.99,,2013-04-05 23:42:00,
2013-04-05 17:52:00,56.0,25.0,-100.00,NW,325,2.0,12.0,30,0.00,,,-99.99,,2013-04-05 23:52:00,
2013-04-05 18:02:00,56.0,26.0,-100.00,SW,235,2.0,6.0,30,0.00,,,-99.99,,2013-04-06 00:02:00,
2013-04-05 18:13:00,56.0,26.0,-100.00,South,185,5.0,7.0,31,0.00,,,-99.99,,2013-04-06 00:13:00,
2013-04-05 18:22:00,55.0,26.0,-100.00,WNW,290,4.0,14.0,31,0.00,,,-99.99,,2013-04-06 00:22:00,
2013-04-05 18:32:00,55.0,26.0,-100.00,NW,320,6.0,11.0,32,0.00,,,-99.99,,2013-04-06 00:32:00,
2013-04-05 18:42:00,55.0,26.0,-100.00,SW,215,2.0,5.0,32,0.00,,,-99.99,,2013-04-06 00:42:00,
2013-04-05 18:52:00,55.0,26.0,-100.00,SW,235,4.0,9.0,32,0.00,,,-99.99,,2013-04-06 00:52:00,
2013-04-05 19:02:00,51.0,29.0,-100.00,West,280,17.0,32.0,42,0.00,,,-99.99,,2013-04-06 01:02:00,
2013-04-05 19:12:00,46.0,37.0,-100.00,West,270,12.0,33.0,70,0.00,,,-99.99,,2013-04-06 01:12:00,
2013-04-05 19:22:00,44.0,38.0,-100.00,WSW,250,4.0,21.0,80,0.00,,,-99.99,,2013-04-06 01:22:00,
2013-04-05 19:32:00,44.0,39.0,-100.00,WSW,245,7.0,13.0,83,0.00,,,-99.99,,2013-04-06 01:32:00,
2013-04-05 19:43:00,44.0,39.0,-100.00,West,265,4.0,14.0,82,0.00,,,-99.99,,2013-04-06 01:43:00,
2013-04-05 19:52:00,43.0,38.0,-100.00,West,280,4.0,12.0,82,0.00,,,-99.99,,2013-04-06 01:52:00,
2013-04-05 20:02:00,43.0,38.0,-100.00,NW,320,2.0,6.0,84,0.00,,,-99.99,,2013-04-06 02:02:00,
2013-04-05 20:12:00,43.0,39.0,-100.00,South,185,2.0,2.0,86,0.00,,,-99.99,,2013-04-06 02:12:00,
2013-04-05 20:22:00,42.0,38.0,-100.00,South,170,0.0,2.0,87,0.00,,,-99.99,,2013-04-06 02:22:00,
2013-04-05 20:32:00,42.0,39.0,-100.00,SSE,160,0.0,0.0,89,0.00,,,-99.99,,2013-04-06 02:32:00,
2013-04-05 20:42:00,42.0,39.0,-100.00,East,85,2.0,3.0,90,0.00,,,-99.99,,2013-04-06 02:42:00,
2013-04-05 20:52:00,42.0,39.0,-100.00,SE,145,0.0,4.0,91,0.00,,,-99.99,,2013-04-06 02:52:00,
2013-04-05 21:02:00,41.0,39.0,-100.00,East,95,4.0,4.0,92,0.00,,,-99.99,,2013-04-06 03:02:00,
2013-04-05 21:12:00,41.0,39.0,-100.00,SE,145,0.0,4.0,92,0.00,,,-99.99,,2013-04-06 03:12:00,
2013-04-05 21:22:00,41.0,39.0,-100.00,ESE,105,4.0,4.0,92,0.00,,,-99.99,,2013-04-06 03:22:00,
2013-04-05 21:33:00,41.0,39.0,-100.00,ESE,115,4.0,6.0,92,0.00,,,-99.99,,2013-04-06 03:33:00,
2013-04-05 21:43:00,42.0,40.0,-100.00,East,100,2.0,6.0,93,0.00,,,-99.99,,2013-04-06 03:43:00,
2013-04-05 21:53:00,41.0,40.0,-100.00,SE,130,3.0,5.0,93,0.00,,,-99.99,,2013-04-06 03:53:00,
2013-04-05 22:03:00,41.0,39.0,-100.00,East,100,3.0,4.0,93,0.00,,,-99.99,,2013-04-06 04:03:00,
2013-04-05 22:13:00,41.0,40.0,-100.00,East,85,2.0,3.0,93,0.00,,,-99.99,,2013-04-06 04:13:00,
2013-04-05 22:23:00,41.0,39.0,-100.00,East,90,2.0,4.0,93,0.00,,,-99.99,,2013-04-06 04:23:00,
2013-04-05 22:32:00,41.0,39.0,-100.00,East,95,0.0,6.0,93,0.00,,,-99.99,,2013-04-06 04:32:00,
2013-04-05 22:42:00,41.0,39.0,-100.00,East,95,0.0,0.0,93,0.00,,,-99.99,,2013-04-06 04:42:00,
2013-04-05 22:52:00,40.0,39.0,-100.00,East,90,0.0,0.0,93,0.00,,,-99.99,,2013-04-06 04:52:00,
2013-04-05 23:02:00,40.0,39.0,-100.00,ESE,110,0.0,0.0,93,0.00,,,-99.99,,2013-04-06 05:02:00,
2013-04-05 23:13:00,40.0,39.0,-100.00,ESE,105,0.0,0.0,93,0.00,,,-99.99,,2013-04-06 05:13:00,
2013-04-05 23:22:00,40.0,39.0,-100.00,ENE,75,0.0,0.0,93,0.00,,,-99.99,,2013-04-06 05:22:00,
2013-04-05 23:32:00,40.0,38.0,-100.00,SSE,165,1.0,2.0,94,0.00,,,-99.99,,2013-04-06 05:32:00,
2013-04-05 23:42:00,40.0,38.0,-100.00,East,85,1.0,2.0,94,0.00,,,-99.99,,2013-04-06 05:42:00,
2013-04-05 23:51:00,39.0,38.0,-100.00,ESE,115,2.0,4.0,94,0.00,,,-99.99,,2013-04-06 05:51:00,